^^
Station Historical Data
Daily Summary for January 31, 2019 Units:  English    Metric   Both
« Previous Day
Next Day »
Daily Weekly Monthly Yearly Custom
  High: Low: Average:
Temperature: 8.8 °F -12.0 °F -0.6 °F
Dew Point: 5.4 °F -16.4 °F -4.8 °F
Humidity: 92% 77% 82%
Wind Speed: 18.0mph 2.0mph 8.7mph
Wind Gust: 19.0mph - -
Wind- - SE
Pressure: 30.19 in 29.96 in -
Precipitation: 0.00 in    
Historical Graphs
 
 
Tabular Data for January 31, 2019
Time Temperature Dew Point Pressure Wind Wind Speed Wind Gust Humidity Rainfall Rate (Hourly) solar Conditions
00:04 -12.0 °F -16.4 °F 30.19 in ESE 12.0 mph 14.0 mph 80% 0.00 in 0.00 W/m2
00:09 -12.0 °F -16.4 °F 30.19 in ESE 15.0 mph 15.0 mph 80% 0.00 in 0.00 W/m2
00:14 -12.0 °F -16.4 °F 30.19 in ESE 11.0 mph 16.0 mph 80% 0.00 in 0.00 W/m2
00:19 -12.0 °F -16.4 °F 30.19 in ESE 11.0 mph 17.0 mph 80% 0.00 in 0.00 W/m2
00:24 -12.0 °F -16.4 °F 30.18 in ESE 11.0 mph 17.0 mph 80% 0.00 in 0.00 W/m2
00:29 -11.9 °F -16.3 °F 30.18 in ESE 11.0 mph 17.0 mph 80% 0.00 in 0.00 W/m2
00:34 -11.9 °F -16.3 °F 30.18 in ESE 12.0 mph 17.0 mph 80% 0.00 in 0.00 W/m2
00:39 -11.9 °F -16.3 °F 30.18 in ESE 13.0 mph 17.0 mph 80% 0.00 in 0.00 W/m2
00:44 -11.8 °F -16.2 °F 30.18 in ESE 15.0 mph 17.0 mph 80% 0.00 in 0.00 W/m2
00:49 -11.9 °F -16.3 °F 30.17 in ESE 11.0 mph 17.0 mph 80% 0.00 in 0.00 W/m2
00:54 -12.0 °F -16.4 °F 30.17 in ESE 14.0 mph 17.0 mph 80% 0.00 in 0.00 W/m2
00:59 -11.9 °F -16.3 °F 30.17 in ESE 12.0 mph 17.0 mph 80% 0.00 in 0.00 W/m2
01:04 -11.8 °F -16.2 °F 30.16 in ESE 14.0 mph 16.0 mph 80% 0.00 in 0.00 W/m2
01:09 -11.7 °F -16.1 °F 30.16 in ESE 11.0 mph 15.0 mph 80% 0.00 in 0.00 W/m2
01:14 -11.7 °F -16.1 °F 30.16 in ESE 16.0 mph 16.0 mph 80% 0.00 in 0.00 W/m2
01:19 -11.7 °F -16.1 °F 30.16 in ESE 12.0 mph 16.0 mph 80% 0.00 in 0.00 W/m2
01:24 -11.6 °F -16.0 °F 30.16 in ESE 12.0 mph 16.0 mph 80% 0.00 in 0.00 W/m2
01:29 -11.6 °F -16.0 °F 30.16 in ESE 15.0 mph 16.0 mph 80% 0.00 in 0.00 W/m2
01:34 -11.5 °F -15.7 °F 30.16 in ESE 12.0 mph 17.0 mph 81% 0.00 in 0.00 W/m2
01:39 -11.4 °F -15.6 °F 30.15 in ESE 10.0 mph 17.0 mph 81% 0.00 in 0.00 W/m2
01:44 -11.4 °F -15.6 °F 30.14 in ESE 11.0 mph 14.0 mph 81% 0.00 in 0.00 W/m2
01:49 -11.2 °F -15.4 °F 30.14 in ESE 13.0 mph 15.0 mph 81% 0.00 in 0.00 W/m2
01:54 -11.1 °F -15.3 °F 30.14 in SE 14.0 mph 15.0 mph 81% 0.00 in 0.00 W/m2
01:59 -11.1 °F -15.3 °F 30.14 in SE 9.0 mph 16.0 mph 81% 0.00 in 0.00 W/m2
02:04 -11.0 °F -15.2 °F 30.14 in SE 12.0 mph 16.0 mph 81% 0.00 in 0.00 W/m2
02:09 -11.0 °F -15.2 °F 30.14 in ESE 10.0 mph 16.0 mph 81% 0.00 in 0.00 W/m2
02:14 -10.8 °F -15.0 °F 30.14 in ESE 17.0 mph 17.0 mph 81% 0.00 in 0.00 W/m2
02:19 -10.6 °F -14.8 °F 30.14 in ESE 8.0 mph 17.0 mph 81% 0.00 in 0.00 W/m2
02:24 -10.5 °F -14.7 °F 30.14 in ESE 12.0 mph 17.0 mph 81% 0.00 in 0.00 W/m2
02:29 -10.4 °F -14.6 °F 30.14 in ESE 11.0 mph 16.0 mph 81% 0.00 in 0.00 W/m2
02:34 -10.3 °F -14.5 °F 30.14 in SE 11.0 mph 16.0 mph 81% 0.00 in 0.00 W/m2
02:39 -10.2 °F -14.4 °F 30.14 in ESE 11.0 mph 17.0 mph 81% 0.00 in 0.00 W/m2
02:44 -10.1 °F -14.3 °F 30.13 in East 10.0 mph 17.0 mph 81% 0.00 in 0.00 W/m2
02:49 -10.0 °F -14.0 °F 30.13 in ESE 12.0 mph 15.0 mph 82% 0.00 in 0.00 W/m2
02:54 -9.9 °F -13.9 °F 30.13 in ESE 12.0 mph 17.0 mph 82% 0.00 in 0.00 W/m2
02:59 -9.8 °F -13.8 °F 30.12 in ESE 14.0 mph 17.0 mph 82% 0.00 in 0.00 W/m2
03:04 -9.7 °F -13.7 °F 30.12 in ESE 17.0 mph 18.0 mph 82% 0.00 in 0.00 W/m2
03:09 -9.6 °F -13.6 °F 30.11 in ESE 11.0 mph 18.0 mph 82% 0.00 in 0.00 W/m2
03:14 -9.6 °F -13.6 °F 30.11 in SE 10.0 mph 17.0 mph 82% 0.00 in 0.00 W/m2
03:19 -9.6 °F -13.6 °F 30.11 in ESE 12.0 mph 17.0 mph 82% 0.00 in 0.00 W/m2
03:24 -9.5 °F -13.5 °F 30.11 in ESE 13.0 mph 17.0 mph 82% 0.00 in 0.00 W/m2
03:29 -9.5 °F -13.5 °F 30.10 in ESE 18.0 mph 18.0 mph 82% 0.00 in 0.00 W/m2
03:34 -9.6 °F -13.6 °F 30.10 in ESE 17.0 mph 18.0 mph 82% 0.00 in 0.00 W/m2
03:39 -9.5 °F -13.5 °F 30.10 in ESE 10.0 mph 18.0 mph 82% 0.00 in 0.00 W/m2
03:44 -9.4 °F -13.4 °F 30.10 in ESE 12.0 mph 18.0 mph 82% 0.00 in 0.00 W/m2
03:49 -9.3 °F -13.3 °F 30.10 in SE 11.0 mph 18.0 mph 82% 0.00 in 0.00 W/m2
03:54 -9.3 °F -13.3 °F 30.09 in ESE 15.0 mph 19.0 mph 82% 0.00 in 0.00 W/m2
03:59 -9.3 °F -13.3 °F 30.09 in ESE 15.0 mph 19.0 mph 82% 0.00 in 0.00 W/m2
04:04 -9.3 °F -13.3 °F 30.09 in ESE 13.0 mph 18.0 mph 82% 0.00 in 0.00 W/m2
04:09 -9.2 °F -13.2 °F 30.09 in ESE 11.0 mph 18.0 mph 82% 0.00 in 0.00 W/m2
04:14 -9.2 °F -13.2 °F 30.08 in ESE 14.0 mph 18.0 mph 82% 0.00 in 0.00 W/m2
04:19 -9.2 °F -13.2 °F 30.08 in ESE 12.0 mph 18.0 mph 82% 0.00 in 0.00 W/m2
04:24 -9.1 °F -13.1 °F 30.08 in ESE 11.0 mph 17.0 mph 82% 0.00 in 0.00 W/m2
04:29 -9.0 °F -13.0 °F 30.07 in ESE 13.0 mph 17.0 mph 82% 0.00 in 0.00 W/m2
04:34 -9.0 °F -13.0 °F 30.07 in ESE 13.0 mph 18.0 mph 82% 0.00 in 0.00 W/m2
04:39 -8.9 °F -12.9 °F 30.06 in East 11.0 mph 18.0 mph 82% 0.00 in 0.00 W/m2
04:44 -8.9 °F -12.9 °F 30.06 in SE 10.0 mph 18.0 mph 82% 0.00 in 0.00 W/m2
04:49 -8.7 °F -12.7 °F 30.07 in ESE 11.0 mph 18.0 mph 82% 0.00 in 0.00 W/m2
04:54 -8.6 °F -12.6 °F 30.07 in SSE 6.0 mph 18.0 mph 82% 0.00 in 0.00 W/m2
04:59 -8.6 °F -12.6 °F 30.07 in ESE 5.0 mph 16.0 mph 82% 0.00 in 0.00 W/m2
05:04 -8.5 °F -12.5 °F 30.06 in SE 9.0 mph 15.0 mph 82% 0.00 in 0.00 W/m2
05:09 -8.4 °F -12.4 °F 30.06 in SE 12.0 mph 14.0 mph 82% 0.00 in 0.00 W/m2
05:14 -8.3 °F -12.3 °F 30.07 in SE 10.0 mph 14.0 mph 82% 0.00 in 0.00 W/m2
05:19 -8.3 °F -12.3 °F 30.07 in SSE 10.0 mph 15.0 mph 82% 0.00 in 0.00 W/m2
05:24 -8.3 °F -12.3 °F 30.07 in SE 11.0 mph 16.0 mph 82% 0.00 in 0.00 W/m2
05:29 -8.3 °F -12.3 °F 30.07 in SE 8.0 mph 16.0 mph 82% 0.00 in 0.00 W/m2
05:34 -8.2 °F -12.2 °F 30.07 in SSE 12.0 mph 16.0 mph 82% 0.00 in 0.00 W/m2
05:39 -8.1 °F -12.1 °F 30.07 in SE 10.0 mph 16.0 mph 82% 0.00 in 0.00 W/m2
05:44 -8.1 °F -12.1 °F 30.08 in SE 6.0 mph 13.0 mph 82% 0.00 in 0.00 W/m2
05:49 -8.1 °F -12.1 °F 30.08 in SE 10.0 mph 13.0 mph 82% 0.00 in 0.00 W/m2
05:54 -8.0 °F -12.0 °F 30.07 in SE 8.0 mph 13.0 mph 82% 0.00 in 0.00 W/m2
05:59 -7.9 °F -11.9 °F 30.07 in ESE 7.0 mph 14.0 mph 82% 0.00 in 0.00 W/m2
06:04 -7.8 °F -11.8 °F 30.06 in SE 10.0 mph 14.0 mph 82% 0.00 in 0.00 W/m2
06:09 -7.8 °F -11.8 °F 30.06 in SE 8.0 mph 13.0 mph 82% 0.00 in 0.00 W/m2
06:14 -7.8 °F -11.8 °F 30.07 in ESE 8.0 mph 13.0 mph 82% 0.00 in 0.00 W/m2
06:19 -7.8 °F -11.8 °F 30.06 in SE 11.0 mph 14.0 mph 82% 0.00 in 0.00 W/m2
06:24 -7.7 °F -11.7 °F 30.05 in SE 14.0 mph 15.0 mph 82% 0.00 in 0.00 W/m2
06:29 -7.7 °F -11.7 °F 30.05 in SE 11.0 mph 15.0 mph 82% 0.00 in 0.00 W/m2
06:34 -7.6 °F -11.6 °F 30.05 in SE 9.0 mph 15.0 mph 82% 0.00 in 0.00 W/m2
06:39 -7.5 °F -11.3 °F 30.06 in ESE 12.0 mph 14.0 mph 83% 0.00 in 0.00 W/m2
06:44 -7.4 °F -11.2 °F 30.06 in ESE 9.0 mph 14.0 mph 83% 0.00 in 0.00 W/m2
06:49 -7.3 °F -11.1 °F 30.05 in ESE 11.0 mph 14.0 mph 83% 0.00 in 0.00 W/m2
06:54 -7.3 °F -11.1 °F 30.04 in ESE 11.0 mph 16.0 mph 83% 0.00 in 0.00 W/m2
06:59 -7.2 °F -11.0 °F 30.04 in ESE 13.0 mph 16.0 mph 83% 0.00 in 0.00 W/m2
07:04 -7.2 °F -11.2 °F 30.05 in SE 10.0 mph 16.0 mph 82% 0.00 in 0.00 W/m2
07:09 -7.1 °F -11.1 °F 30.04 in SE 15.0 mph 16.0 mph 82% 0.00 in 0.00 W/m2
07:14 -7.1 °F -11.1 °F 30.04 in ESE 13.0 mph 18.0 mph 82% 0.00 in 0.00 W/m2
07:19 -7.1 °F -11.1 °F 30.04 in SE 14.0 mph 18.0 mph 82% 0.00 in 0.00 W/m2
07:24 -7.0 °F -11.0 °F 30.03 in ESE 13.0 mph 18.0 mph 82% 0.00 in 0.00 W/m2
07:29 -6.9 °F -10.9 °F 30.03 in ESE 17.0 mph 18.0 mph 82% 0.00 in 0.00 W/m2
07:34 -6.8 °F -10.9 °F 30.03 in ESE 13.0 mph 18.0 mph 82% 0.00 in 0.00 W/m2
07:39 -6.7 °F -10.5 °F 30.03 in ESE 13.0 mph 18.0 mph 83% 0.00 in 0.00 W/m2
07:44 -6.6 °F -10.4 °F 30.03 in ESE 13.0 mph 17.0 mph 83% 0.00 in 0.00 W/m2
07:49 -6.7 °F -10.8 °F 30.03 in SE 10.0 mph 17.0 mph 82% 0.00 in 0.00 W/m2
07:54 -6.7 °F -10.8 °F 30.04 in ESE 13.0 mph 17.0 mph 82% 0.00 in 0.00 W/m2
07:59 -6.5 °F -10.6 °F 30.04 in SE 12.0 mph 15.0 mph 82% 0.00 in 0.00 W/m2
08:04 -6.3 °F -10.4 °F 30.04 in SE 13.0 mph 14.0 mph 82% 0.00 in 0.00 W/m2
08:09 -6.2 °F -10.3 °F 30.04 in ESE 11.0 mph 14.0 mph 82% 0.00 in 0.00 W/m2
08:14 -6.1 °F -9.9 °F 30.04 in SE 10.0 mph 14.0 mph 83% 0.00 in 5.00 W/m2
08:19 -6.0 °F -10.1 °F 30.05 in SE 8.0 mph 14.0 mph 82% 0.00 in 7.00 W/m2
08:24 -5.9 °F -10.0 °F 30.06 in SE 7.0 mph 13.0 mph 82% 0.00 in 9.00 W/m2
08:29 -5.9 °F -10.0 °F 30.06 in SE 13.0 mph 13.0 mph 82% 0.00 in 11.00 W/m2
08:34 -5.8 °F -9.9 °F 30.05 in SE 10.0 mph 14.0 mph 82% 0.00 in 16.00 W/m2
08:39 -5.8 °F -9.9 °F 30.05 in SE 12.0 mph 14.0 mph 82% 0.00 in 16.00 W/m2
08:44 -5.8 °F -9.9 °F 30.05 in SE 8.0 mph 15.0 mph 82% 0.00 in 21.00 W/m2
08:49 -5.7 °F -9.8 °F 30.04 in SE 14.0 mph 15.0 mph 82% 0.00 in 26.00 W/m2
08:54 -5.7 °F -9.8 °F 30.04 in ESE 12.0 mph 15.0 mph 82% 0.00 in 32.00 W/m2
08:59 -5.6 °F -9.7 °F 30.04 in SSE 10.0 mph 17.0 mph 82% 0.00 in 37.00 W/m2
09:04 -5.5 °F -9.6 °F 30.05 in SE 7.0 mph 17.0 mph 82% 0.00 in 40.00 W/m2
09:09 -5.5 °F -9.6 °F 30.05 in SE 12.0 mph 15.0 mph 82% 0.00 in 44.00 W/m2
09:14 -5.5 °F -9.6 °F 30.05 in SE 13.0 mph 15.0 mph 82% 0.00 in 49.00 W/m2
09:19 -5.4 °F -9.5 °F 30.04 in SE 8.0 mph 15.0 mph 82% 0.00 in 51.00 W/m2
09:24 -5.2 °F -9.3 °F 30.04 in ESE 14.0 mph 15.0 mph 82% 0.00 in 56.00 W/m2
09:29 -5.2 °F -9.3 °F 30.04 in SE 9.0 mph 15.0 mph 82% 0.00 in 62.00 W/m2
09:34 -5.1 °F -9.2 °F 30.05 in SE 10.0 mph 15.0 mph 82% 0.00 in 70.00 W/m2
09:39 -5.0 °F -9.1 °F 30.06 in SSE 10.0 mph 13.0 mph 82% 0.00 in 62.00 W/m2
09:44 -5.0 °F -9.1 °F 30.06 in SE 10.0 mph 12.0 mph 82% 0.00 in 72.00 W/m2
09:49 -4.8 °F -8.9 °F 30.05 in SE 10.0 mph 14.0 mph 82% 0.00 in 70.00 W/m2
09:54 -4.8 °F -8.9 °F 30.05 in SSE 10.0 mph 15.0 mph 82% 0.00 in 72.00 W/m2
09:59 -4.6 °F -8.7 °F 30.05 in SSE 9.0 mph 15.0 mph 82% 0.00 in 91.00 W/m2
10:04 -4.5 °F -8.6 °F 30.04 in SSE 12.0 mph 14.0 mph 82% 0.00 in 105.00 W/m2
10:09 -4.5 °F -8.6 °F 30.04 in SSE 8.0 mph 14.0 mph 82% 0.00 in 109.00 W/m2
10:14 -4.4 °F -8.5 °F 30.04 in SE 8.0 mph 14.0 mph 82% 0.00 in 123.00 W/m2
10:19 -4.2 °F -8.3 °F 30.04 in SE 11.0 mph 14.0 mph 82% 0.00 in 127.00 W/m2
10:24 -4.2 °F -8.3 °F 30.04 in SE 5.0 mph 14.0 mph 82% 0.00 in 135.00 W/m2
10:29 -4.0 °F -8.1 °F 30.04 in SSE 10.0 mph 14.0 mph 82% 0.00 in 139.00 W/m2
10:34 -3.8 °F -7.9 °F 30.04 in SE 6.0 mph 13.0 mph 82% 0.00 in 128.00 W/m2
10:39 -3.7 °F -7.8 °F 30.05 in SSE 7.0 mph 13.0 mph 82% 0.00 in 195.00 W/m2
10:44 -3.4 °F -7.5 °F 30.05 in SE 6.0 mph 12.0 mph 82% 0.00 in 174.00 W/m2
10:49 -3.1 °F -7.2 °F 30.05 in ESE 7.0 mph 11.0 mph 82% 0.00 in 181.00 W/m2
10:54 -3.1 °F -7.2 °F 30.05 in ESE 12.0 mph 12.0 mph 82% 0.00 in 179.00 W/m2
10:59 -2.9 °F -7.0 °F 30.04 in SE 10.0 mph 12.0 mph 82% 0.00 in 283.00 W/m2
11:04 -2.7 °F -7.1 °F 30.04 in SE 13.0 mph 13.0 mph 81% 0.00 in 272.00 W/m2
11:09 -2.7 °F -7.1 °F 30.04 in SE 11.0 mph 13.0 mph 81% 0.00 in 250.00 W/m2
11:14 -2.6 °F -7.0 °F 30.04 in SE 9.0 mph 13.0 mph 81% 0.00 in 255.00 W/m2
11:19 -2.5 °F -6.9 °F 30.05 in SE 8.0 mph 13.0 mph 81% 0.00 in 264.00 W/m2
11:24 -2.3 °F -6.7 °F 30.05 in SSE 10.0 mph 12.0 mph 81% 0.00 in 264.00 W/m2
11:29 -2.3 °F -6.7 °F 30.04 in SE 12.0 mph 12.0 mph 81% 0.00 in 225.00 W/m2
11:34 -2.2 °F -6.6 °F 30.04 in SE 10.0 mph 12.0 mph 81% 0.00 in 272.00 W/m2
11:39 -1.9 °F -6.3 °F 30.05 in SE 7.0 mph 12.0 mph 81% 0.00 in 292.00 W/m2
11:44 -1.6 °F -6.0 °F 30.04 in SE 8.0 mph 11.0 mph 81% 0.00 in 288.00 W/m2
11:49 -1.2 °F -5.6 °F 30.04 in SE 3.0 mph 11.0 mph 81% 0.00 in 288.00 W/m2
11:54 -0.9 °F -5.3 °F 30.05 in SE 10.0 mph 11.0 mph 81% 0.00 in 297.00 W/m2
11:59 -0.7 °F -5.4 °F 30.04 in SE 8.0 mph 11.0 mph 80% 0.00 in 478.00 W/m2
12:04 -0.3 °F -5.0 °F 30.04 in SSE 5.0 mph 10.0 mph 80% 0.00 in 529.00 W/m2
12:09 -0.1 °F -4.8 °F 30.04 in SSE 8.0 mph 11.0 mph 80% 0.00 in 403.00 W/m2
12:14 0.1 °F -4.9 °F 30.05 in SSE 8.0 mph 11.0 mph 79% 0.00 in 369.00 W/m2
12:19 0.3 °F -4.7 °F 30.04 in SE 8.0 mph 11.0 mph 79% 0.00 in 353.00 W/m2
12:24 0.3 °F -4.7 °F 30.04 in SE 9.0 mph 10.0 mph 79% 0.00 in 339.00 W/m2
12:29 0.5 °F -4.5 °F 30.04 in SE 7.0 mph 11.0 mph 79% 0.00 in 323.00 W/m2
12:34 0.7 °F -4.0 °F 30.04 in SSE 4.0 mph 11.0 mph 80% 0.00 in 316.00 W/m2
12:39 1.1 °F -3.6 °F 30.04 in SSE 6.0 mph 9.0 mph 80% 0.00 in 302.00 W/m2
12:44 1.3 °F -3.4 °F 30.04 in SSE 5.0 mph 8.0 mph 80% 0.00 in 276.00 W/m2
12:49 1.4 °F -3.6 °F 30.03 in SSE 6.0 mph 8.0 mph 79% 0.00 in 294.00 W/m2
12:54 1.7 °F -3.0 °F 30.04 in South 3.0 mph 8.0 mph 80% 0.00 in 316.00 W/m2
12:59 2.0 °F -3.0 °F 30.04 in SSE 4.0 mph 8.0 mph 79% 0.00 in 281.00 W/m2
13:04 2.3 °F -2.7 °F 30.04 in South 2.0 mph 7.0 mph 79% 0.00 in 295.00 W/m2
13:09 2.8 °F -2.0 °F 30.03 in SSE 5.0 mph 7.0 mph 80% 0.00 in 304.00 W/m2
13:14 3.4 °F -1.7 °F 30.03 in South 5.0 mph 7.0 mph 79% 0.00 in 322.00 W/m2
13:19 3.9 °F -1.2 °F 30.03 in SSW 4.0 mph 7.0 mph 79% 0.00 in 316.00 W/m2
13:24 4.4 °F -0.7 °F 30.02 in South 4.0 mph 8.0 mph 79% 0.00 in 313.00 W/m2
13:29 4.7 °F -0.7 °F 30.02 in SSW 7.0 mph 8.0 mph 78% 0.00 in 309.00 W/m2
13:34 5.1 °F -0.3 °F 30.01 in SE 6.0 mph 8.0 mph 78% 0.00 in 302.00 W/m2
13:39 5.1 °F -0.3 °F 30.01 in SSE 5.0 mph 9.0 mph 78% 0.00 in 309.00 W/m2
13:44 5.3 °F -0.1 °F 30.01 in SSW 6.0 mph 9.0 mph 78% 0.00 in 309.00 W/m2
13:49 5.5 °F 0.1 °F 30.01 in SSE 7.0 mph 9.0 mph 78% 0.00 in 304.00 W/m2
13:54 5.5 °F 0.1 °F 30.01 in South 6.0 mph 9.0 mph 78% 0.00 in 302.00 W/m2
13:59 5.7 °F 0.3 °F 30.01 in SSE 5.0 mph 9.0 mph 78% 0.00 in 308.00 W/m2
14:04 5.9 °F 0.5 °F 30.01 in South 6.0 mph 8.0 mph 78% 0.00 in 274.00 W/m2
14:09 6.1 °F 0.7 °F 30.01 in South 6.0 mph 8.0 mph 78% 0.00 in 283.00 W/m2
14:14 6.4 °F 1.0 °F 30.01 in South 6.0 mph 8.0 mph 78% 0.00 in 304.00 W/m2
14:19 6.7 °F 1.3 °F 30.01 in SSE 5.0 mph 7.0 mph 78% 0.00 in 281.00 W/m2
14:24 6.9 °F 1.5 °F 30.00 in SSW 5.0 mph 7.0 mph 78% 0.00 in 290.00 W/m2
14:29 7.0 °F 1.3 °F 30.01 in SE 7.0 mph 8.0 mph 77% 0.00 in 272.00 W/m2
14:34 6.7 °F 1.0 °F 30.01 in SE 6.0 mph 9.0 mph 77% 0.00 in 287.00 W/m2
14:39 6.8 °F 1.1 °F 30.00 in SE 7.0 mph 9.0 mph 77% 0.00 in 253.00 W/m2
14:44 6.7 °F 1.0 °F 30.00 in SE 5.0 mph 9.0 mph 77% 0.00 in 250.00 W/m2
14:49 6.7 °F 1.3 °F 30.00 in SE 6.0 mph 9.0 mph 78% 0.00 in 248.00 W/m2
14:54 6.7 °F 1.3 °F 30.00 in SE 5.0 mph 8.0 mph 78% 0.00 in 221.00 W/m2
14:59 6.7 °F 1.3 °F 29.99 in SE 5.0 mph 9.0 mph 78% 0.00 in 202.00 W/m2
15:04 6.7 °F 1.3 °F 30.00 in SE 6.0 mph 9.0 mph 78% 0.00 in 223.00 W/m2
15:09 6.8 °F 1.4 °F 30.00 in SE 6.0 mph 9.0 mph 78% 0.00 in 255.00 W/m2
15:14 6.8 °F 1.4 °F 30.00 in SSE 6.0 mph 9.0 mph 78% 0.00 in 221.00 W/m2
15:19 7.0 °F 1.9 °F 30.00 in SSE 7.0 mph 9.0 mph 79% 0.00 in 199.00 W/m2
15:24 7.1 °F 1.7 °F 30.00 in SE 7.0 mph 8.0 mph 78% 0.00 in 183.00 W/m2
15:29 7.1 °F 2.0 °F 30.00 in SE 4.0 mph 8.0 mph 79% 0.00 in 193.00 W/m2
15:34 7.4 °F 2.3 °F 30.00 in SE 4.0 mph 8.0 mph 79% 0.00 in 165.00 W/m2
15:39 7.4 °F 2.3 °F 30.00 in SE 4.0 mph 8.0 mph 79% 0.00 in 153.00 W/m2
15:44 7.6 °F 2.4 °F 30.00 in SE 4.0 mph 8.0 mph 79% 0.00 in 158.00 W/m2
15:49 7.4 °F 2.3 °F 30.00 in SE 4.0 mph 8.0 mph 79% 0.00 in 162.00 W/m2
15:54 7.7 °F 2.5 °F 30.00 in SE 4.0 mph 8.0 mph 79% 0.00 in 165.00 W/m2
15:59 7.9 °F 2.7 °F 30.01 in SE 4.0 mph 8.0 mph 79% 0.00 in 153.00 W/m2
16:04 8.1 °F 2.9 °F 30.01 in SE 4.0 mph 8.0 mph 79% 0.00 in 113.00 W/m2
16:09 8.1 °F 2.9 °F 30.01 in SE 4.0 mph 8.0 mph 79% 0.00 in 102.00 W/m2
16:14 8.2 °F 3.3 °F 30.02 in SE 4.0 mph 8.0 mph 80% 0.00 in 91.00 W/m2
16:19 8.3 °F 3.1 °F 30.02 in SE 4.0 mph 8.0 mph 79% 0.00 in 97.00 W/m2
16:24 8.3 °F 3.1 °F 30.02 in SSE 3.0 mph 6.0 mph 79% 0.00 in 98.00 W/m2
16:29 8.5 °F 3.3 °F 30.02 in South 4.0 mph 6.0 mph 79% 0.00 in 95.00 W/m2
16:34 8.7 °F 3.5 °F 30.02 in SSE 4.0 mph 6.0 mph 79% 0.00 in 88.00 W/m2
16:39 8.8 °F 3.6 °F 30.01 in SSE 2.0 mph 6.0 mph 79% 0.00 in 81.00 W/m2
16:44 8.8 °F 3.6 °F 30.02 in ESE 4.0 mph 5.0 mph 79% 0.00 in 67.00 W/m2
16:49 8.5 °F 3.3 °F 30.02 in ESE 4.0 mph 7.0 mph 79% 0.00 in 58.00 W/m2
16:54 8.2 °F 3.0 °F 30.02 in ESE 5.0 mph 7.0 mph 79% 0.00 in 49.00 W/m2
16:59 8.1 °F 3.2 °F 30.01 in ESE 7.0 mph 7.0 mph 80% 0.00 in 40.00 W/m2
17:04 8.0 °F 3.1 °F 30.01 in East 7.0 mph 8.0 mph 80% 0.00 in 35.00 W/m2
17:09 8.0 °F 3.1 °F 30.02 in ESE 3.0 mph 9.0 mph 80% 0.00 in 30.00 W/m2
17:14 8.0 °F 3.1 °F 30.02 in ESE 7.0 mph 9.0 mph 80% 0.00 in 26.00 W/m2
17:19 8.0 °F 3.4 °F 30.01 in SE 6.0 mph 9.0 mph 81% 0.00 in 21.00 W/m2
17:24 8.0 °F 3.4 °F 30.02 in SE 7.0 mph 9.0 mph 81% 0.00 in 16.00 W/m2
17:29 7.8 °F 2.9 °F 30.01 in SE 6.0 mph 10.0 mph 80% 0.00 in 12.00 W/m2
17:34 7.7 °F 3.1 °F 30.00 in ESE 7.0 mph 10.0 mph 81% 0.00 in 9.00 W/m2
17:39 7.5 °F 2.9 °F 30.00 in ESE 7.0 mph 10.0 mph 81% 0.00 in 5.00 W/m2
17:44 7.4 °F 3.1 °F 30.00 in ESE 5.0 mph 10.0 mph 82% 0.00 in 0.00 W/m2
17:49 7.3 °F 3.0 °F 30.00 in East 7.0 mph 10.0 mph 82% 0.00 in 0.00 W/m2
17:54 7.2 °F 2.9 °F 30.00 in ESE 7.0 mph 10.0 mph 82% 0.00 in 0.00 W/m2
17:59 7.2 °F 2.9 °F 30.01 in SE 5.0 mph 10.0 mph 82% 0.00 in 0.00 W/m2
18:04 7.2 °F 2.9 °F 30.01 in ESE 7.0 mph 10.0 mph 82% 0.00 in 0.00 W/m2
18:09 7.1 °F 2.8 °F 30.01 in ESE 5.0 mph 10.0 mph 82% 0.00 in 0.00 W/m2
18:14 7.1 °F 2.8 °F 30.01 in ESE 9.0 mph 9.0 mph 82% 0.00 in 0.00 W/m2
18:19 7.0 °F 2.7 °F 30.02 in ESE 8.0 mph 9.0 mph 82% 0.00 in 0.00 W/m2
18:24 7.1 °F 2.8 °F 30.02 in SE 3.0 mph 9.0 mph 82% 0.00 in 0.00 W/m2
18:29 7.1 °F 5.3 °F 30.03 in ESE 5.0 mph 8.0 mph 92% 0.00 in 0.00 W/m2
18:34 7.1 °F 2.8 °F 30.03 in East 5.0 mph 7.0 mph 82% 0.00 in 0.00 W/m2
18:39 7.1 °F 2.8 °F 30.03 in ESE 5.0 mph 8.0 mph 82% 0.00 in 0.00 W/m2
18:44 7.1 °F 2.8 °F 30.03 in ESE 4.0 mph 8.0 mph 82% 0.00 in 0.00 W/m2
18:49 7.2 °F 5.4 °F 30.03 in ESE 3.0 mph 8.0 mph 92% 0.00 in 0.00 W/m2
18:54 7.2 °F 5.4 °F 30.02 in ESE 5.0 mph 8.0 mph 92% 0.00 in 0.00 W/m2
18:59 7.2 °F 3.1 °F 30.02 in ESE 5.0 mph 7.0 mph 83% 0.00 in 0.00 W/m2
19:04 7.3 °F 3.2 °F 30.02 in ESE 7.0 mph 8.0 mph 83% 0.00 in 0.00 W/m2
19:09 7.3 °F 3.2 °F 30.02 in ESE 7.0 mph 8.0 mph 83% 0.00 in 0.00 W/m2
19:14 7.4 °F 3.3 °F 30.02 in East 6.0 mph 8.0 mph 83% 0.00 in 0.00 W/m2
19:19 7.4 °F 3.3 °F 30.01 in East 6.0 mph 8.0 mph 83% 0.00 in 0.00 W/m2
19:24 7.3 °F 3.2 °F 30.01 in SE 8.0 mph 9.0 mph 83% 0.00 in 0.00 W/m2
19:29 7.2 °F 3.1 °F 30.01 in ESE 7.0 mph 9.0 mph 83% 0.00 in 0.00 W/m2
19:34 7.2 °F 3.1 °F 30.01 in SE 6.0 mph 9.0 mph 83% 0.00 in 0.00 W/m2
19:39 7.1 °F 3.0 °F 30.01 in SE 6.0 mph 8.0 mph 83% 0.00 in 0.00 W/m2
19:44 7.0 °F 2.9 °F 30.01 in SE 8.0 mph 8.0 mph 83% 0.00 in 0.00 W/m2
19:49 6.9 °F 2.8 °F 30.01 in SE 7.0 mph 8.0 mph 83% 0.00 in 0.00 W/m2
19:54 6.8 °F 2.7 °F 30.01 in ESE 8.0 mph 9.0 mph 83% 0.00 in 0.00 W/m2
19:59 6.8 °F 3.0 °F 30.01 in ESE 8.0 mph 9.0 mph 84% 0.00 in 0.00 W/m2
20:04 6.9 °F 3.1 °F 30.01 in SE 6.0 mph 9.0 mph 84% 0.00 in 0.00 W/m2
20:09 7.0 °F 3.2 °F 30.01 in ESE 5.0 mph 9.0 mph 84% 0.00 in 0.00 W/m2
20:14 7.1 °F 3.3 °F 30.01 in ESE 4.0 mph 9.0 mph 84% 0.00 in 0.00 W/m2
20:19 7.2 °F 3.4 °F 30.01 in ESE 4.0 mph 9.0 mph 84% 0.00 in 0.00 W/m2
20:24 7.2 °F 3.4 °F 30.00 in ESE 8.0 mph 9.0 mph 84% 0.00 in 0.00 W/m2
20:29 7.2 °F 3.4 °F 30.01 in East 7.0 mph 9.0 mph 84% 0.00 in 0.00 W/m2
20:34 7.2 °F 3.4 °F 30.01 in East 6.0 mph 9.0 mph 84% 0.00 in 0.00 W/m2
20:39 7.1 °F 3.3 °F 30.01 in ESE 9.0 mph 10.0 mph 84% 0.00 in 0.00 W/m2
20:44 7.0 °F 3.2 °F 30.00 in ESE 7.0 mph 10.0 mph 84% 0.00 in 0.00 W/m2
20:49 6.8 °F 3.0 °F 30.00 in ESE 7.0 mph 10.0 mph 84% 0.00 in 0.00 W/m2
20:54 6.7 °F 2.9 °F 30.00 in ESE 9.0 mph 10.0 mph 84% 0.00 in 0.00 W/m2
20:59 6.6 °F 2.8 °F 30.00 in ESE 8.0 mph 11.0 mph 84% 0.00 in 0.00 W/m2
21:04 6.6 °F 3.0 °F 30.00 in ESE 9.0 mph 11.0 mph 85% 0.00 in 0.00 W/m2
21:09 6.7 °F 3.1 °F 29.99 in ESE 8.0 mph 11.0 mph 85% 0.00 in 0.00 W/m2
21:14 6.6 °F 3.0 °F 29.99 in ESE 9.0 mph 11.0 mph 85% 0.00 in 0.00 W/m2
21:19 6.5 °F 3.0 °F 29.99 in ESE 9.0 mph 11.0 mph 85% 0.00 in 0.00 W/m2
21:24 6.5 °F 3.0 °F 29.99 in ESE 9.0 mph 10.0 mph 85% 0.00 in 0.00 W/m2
21:29 6.5 °F 3.0 °F 29.99 in ESE 9.0 mph 11.0 mph 85% 0.00 in 0.00 W/m2
21:34 6.5 °F 3.0 °F 29.99 in East 11.0 mph 11.0 mph 85% 0.00 in 0.00 W/m2
21:39 6.6 °F 3.0 °F 29.99 in ESE 10.0 mph 13.0 mph 85% 0.00 in 0.00 W/m2
21:44 6.7 °F 3.4 °F 29.99 in ESE 8.0 mph 13.0 mph 86% 0.00 in 0.00 W/m2
21:49 6.9 °F 3.8 °F 29.99 in ESE 9.0 mph 13.0 mph 87% 0.00 in 0.00 W/m2
21:54 7.1 °F 4.3 °F 29.98 in East 9.0 mph 13.0 mph 88% 0.00 in 0.00 W/m2
21:59 6.9 °F 4.1 °F 29.98 in ESE 9.0 mph 11.0 mph 88% 0.00 in 0.00 W/m2
22:04 6.9 °F 4.1 °F 29.98 in ESE 8.0 mph 11.0 mph 88% 0.00 in 0.00 W/m2
22:09 6.9 °F 4.1 °F 29.98 in East 8.0 mph 10.0 mph 88% 0.00 in 0.00 W/m2
22:14 7.1 °F 4.5 °F 29.99 in East 9.0 mph 10.0 mph 89% 0.00 in 0.00 W/m2
22:19 7.2 °F 4.6 °F 29.99 in ESE 7.0 mph 10.0 mph 89% 0.00 in 0.00 W/m2
22:24 7.3 °F 4.7 °F 29.98 in ESE 7.0 mph 10.0 mph 89% 0.00 in 0.00 W/m2
22:29 7.3 °F 4.7 °F 29.99 in ESE 8.0 mph 10.0 mph 89% 0.00 in 0.00 W/m2
22:34 7.1 °F 4.3 °F 29.99 in ESE 7.0 mph 10.0 mph 88% 0.00 in 0.00 W/m2
22:39 7.1 °F 4.3 °F 29.99 in ESE 7.0 mph 10.0 mph 88% 0.00 in 0.00 W/m2
22:44 7.0 °F 4.2 °F 29.99 in ESE 9.0 mph 10.0 mph 88% 0.00 in 0.00 W/m2
22:49 7.0 °F 4.2 °F 29.99 in ESE 10.0 mph 11.0 mph 88% 0.00 in 0.00 W/m2
22:54 6.9 °F 4.1 °F 29.99 in ESE 10.0 mph 12.0 mph 88% 0.00 in 0.00 W/m2
22:59 7.0 °F 4.2 °F 29.99 in ESE 9.0 mph 12.0 mph 88% 0.00 in 0.00 W/m2
23:04 7.1 °F 4.3 °F 29.98 in ESE 10.0 mph 11.0 mph 88% 0.00 in 0.00 W/m2
23:09 7.0 °F 3.9 °F 29.98 in ESE 7.0 mph 11.0 mph 87% 0.00 in 0.00 W/m2
23:14 6.9 °F 3.8 °F 29.98 in ESE 9.0 mph 11.0 mph 87% 0.00 in 0.00 W/m2
23:19 6.8 °F 3.8 °F 29.98 in ESE 10.0 mph 11.0 mph 87% 0.00 in 0.00 W/m2
23:24 6.8 °F 3.8 °F 29.98 in ESE 10.0 mph 12.0 mph 87% 0.00 in 0.00 W/m2
23:29 6.9 °F 3.8 °F 29.98 in ESE 9.0 mph 12.0 mph 87% 0.00 in 0.00 W/m2
23:34 6.8 °F 3.8 °F 29.97 in ESE 9.0 mph 13.0 mph 87% 0.00 in 0.00 W/m2
23:39 6.8 °F 3.8 °F 29.97 in ESE 11.0 mph 13.0 mph 87% 0.00 in 0.00 W/m2
23:44 6.8 °F 3.8 °F 29.96 in ESE 9.0 mph 12.0 mph 87% 0.00 in 0.00 W/m2
23:49 6.9 °F 3.8 °F 29.97 in ESE 9.0 mph 12.0 mph 87% 0.00 in 0.00 W/m2
23:54 6.8 °F 3.5 °F 29.97 in ESE 9.0 mph 13.0 mph 86% 0.00 in 0.00 W/m2
23:59 6.9 °F 3.6 °F 29.97 in ESE 9.0 mph 14.0 mph 86% 0.00 in 0.00 W/m2
Bismarck, North Dakota, USA
Compliments of Weather Underground - 4 mb